Time,TemperatureF,DewpointF,PressureIn,WindDirection,WindDirectionDegrees,WindSpeedMPH,WindSpeedGustMPH,Humidity,HourlyPrecipIn,Conditions,Clouds,dailyrainin,SoftwareType,DateUTC
2013-04-03 00:03:00,43.0,-99.9,30.17,North,355,14.0,21.0,-999,-99.99,,,-99.99,,2013-04-03 04:03:00,
2013-04-03 00:13:00,43.0,-99.9,30.17,North,-999,-999.0,-999.0,-999,-99.99,,,-99.99,,2013-04-03 04:13:00,
2013-04-03 00:23:00,-999.0,-99.9,30.17,NNW,340,9.0,16.0,-999,-99.99,,,-99.99,,2013-04-03 04:23:00,
2013-04-03 00:33:00,43.0,-99.9,30.17,North,349,9.0,18.0,-999,-99.99,,,-99.99,,2013-04-03 04:33:00,
2013-04-03 00:43:00,43.0,-99.9,30.18,NNW,337,12.0,16.0,-999,-99.99,,,-99.99,,2013-04-03 04:43:00,
2013-04-03 00:53:00,-999.0,-99.9,30.18,NNW,337,12.0,18.0,-999,-99.99,,,-99.99,,2013-04-03 04:53:00,
2013-04-03 01:03:00,42.0,-99.9,30.18,NNW,337,9.0,15.0,-999,-99.99,,,-99.99,,2013-04-03 05:03:00,
2013-04-03 01:13:00,-999.0,-99.9,30.18,NNW,331,10.0,18.0,-999,-99.99,,,-99.99,,2013-04-03 05:13:00,
2013-04-03 01:23:00,-999.0,-99.9,30.18,NNW,336,9.0,16.0,-999,-99.99,,,-99.99,,2013-04-03 05:23:00,
2013-04-03 01:33:00,42.0,-99.9,30.19,NNW,329,7.0,16.0,-999,-99.99,,,-99.99,,2013-04-03 05:33:00,
2013-04-03 01:42:00,42.0,-99.9,30.19,North,-999,-999.0,-999.0,-999,-99.99,,,-99.99,,2013-04-03 05:42:00,
2013-04-03 01:53:00,41.0,-99.9,30.19,North,-999,-999.0,-999.0,-999,-99.99,,,-99.99,,2013-04-03 05:53:00,
2013-04-03 02:03:00,42.0,-99.9,30.20,NW,323,9.0,12.0,-999,-99.99,,,-99.99,,2013-04-03 06:03:00,
2013-04-03 02:12:00,41.0,-99.9,30.20,NW,323,6.0,11.0,-999,-99.99,,,-99.99,,2013-04-03 06:12:00,
2013-04-03 02:22:00,-999.0,-99.9,30.20,NW,315,7.0,9.0,-999,-99.99,,,-99.99,,2013-04-03 06:22:00,
2013-04-03 02:32:00,41.0,-99.9,30.20,NW,311,7.0,9.0,-999,-99.99,,,-99.99,,2013-04-03 06:32:00,
2013-04-03 02:43:00,-999.0,-99.9,30.20,NW,316,7.0,9.0,-999,-99.99,,,-99.99,,2013-04-03 06:43:00,
2013-04-03 02:52:00,40.0,-99.9,30.20,North,-999,-999.0,-999.0,-999,-99.99,,,-99.99,,2013-04-03 06:52:00,
2013-04-03 03:03:00,40.0,-99.9,30.20,NW,311,6.0,8.0,-999,-99.99,,,-99.99,,2013-04-03 07:03:00,
2013-04-03 03:12:00,-999.0,-99.9,30.20,NW,306,5.0,6.0,-999,-99.99,,,-99.99,,2013-04-03 07:12:00,
2013-04-03 03:23:00,-999.0,-99.9,30.21,WNW,302,5.0,6.0,-999,-99.99,,,-99.99,,2013-04-03 07:23:00,
2013-04-03 03:33:00,39.0,-99.9,30.21,NW,305,5.0,6.0,-999,-99.99,,,-99.99,,2013-04-03 07:33:00,
2013-04-03 03:43:00,39.0,-99.9,30.21,NW,309,4.0,6.0,-999,-99.99,,,-99.99,,2013-04-03 07:43:00,
2013-04-03 03:53:00,39.0,-99.9,30.21,North,-999,-999.0,-999.0,-999,-99.99,,,-99.99,,2013-04-03 07:53:00,
2013-04-03 04:03:00,39.0,-99.9,30.21,NW,304,4.0,5.0,-999,-99.99,,,-99.99,,2013-04-03 08:03:00,
2013-04-03 04:12:00,-999.0,-99.9,30.21,NW,304,4.0,4.0,-999,-99.99,,,-99.99,,2013-04-03 08:12:00,
2013-04-03 04:22:00,-999.0,-99.9,30.21,WNW,295,3.0,4.0,-999,-99.99,,,-99.99,,2013-04-03 08:22:00,
2013-04-03 04:33:00,38.0,-99.9,30.21,West,272,1.0,2.0,-999,-99.99,,,-99.99,,2013-04-03 08:33:00,
2013-04-03 04:43:00,38.0,-99.9,30.21,West,265,3.0,3.0,-999,-99.99,,,-99.99,,2013-04-03 08:43:00,
2013-04-03 04:52:00,-999.0,-99.9,30.21,West,260,3.0,4.0,-999,-99.99,,,-99.99,,2013-04-03 08:52:00,
2013-04-03 05:02:00,38.0,-99.9,30.22,West,268,3.0,4.0,-999,-99.99,,,-99.99,,2013-04-03 09:02:00,
2013-04-03 05:12:00,38.0,-99.9,30.21,West,278,2.0,3.0,-999,-99.99,,,-99.99,,2013-04-03 09:12:00,
2013-04-03 05:22:00,-999.0,-99.9,30.21,WNW,283,2.0,3.0,-999,-99.99,,,-99.99,,2013-04-03 09:22:00,
2013-04-03 05:33:00,38.0,-99.9,30.22,WSW,246,0.0,3.0,-999,-99.99,,,-99.99,,2013-04-03 09:33:00,
2013-04-03 05:43:00,38.0,-99.9,30.22,North,-999,-999.0,-999.0,-999,-99.99,,,-99.99,,2013-04-03 09:43:00,
2013-04-03 05:53:00,-999.0,-99.9,30.22,NNW,337,0.0,1.0,-999,-99.99,,,-99.99,,2013-04-03 09:53:00,
2013-04-03 06:03:00,38.0,-99.9,30.22,NE,37,-999.0,1.0,-999,-99.99,,,-99.99,,2013-04-03 10:03:00,
2013-04-03 06:13:00,38.0,-99.9,30.22,WSW,241,1.0,3.0,-999,-99.99,,,-99.99,,2013-04-03 10:13:00,
2013-04-03 06:22:00,38.0,-99.9,30.23,North,-999,-999.0,-999.0,-999,-99.99,,,-99.99,,2013-04-03 10:22:00,
2013-04-03 06:33:00,38.0,-99.9,30.23,West,262,2.0,3.0,-999,-99.99,,,-99.99,,2013-04-03 10:33:00,
2013-04-03 06:43:00,38.0,-99.9,30.23,North,-999,-999.0,-999.0,-999,-99.99,,,-99.99,,2013-04-03 10:43:00,
2013-04-03 06:53:00,-999.0,-99.9,30.23,WNW,290,3.0,4.0,-999,-99.99,,,-99.99,,2013-04-03 10:53:00,
2013-04-03 07:03:00,38.0,-99.9,30.24,West,279,4.0,5.0,-999,-99.99,,,-99.99,,2013-04-03 11:03:00,
2013-04-03 07:12:00,-999.0,-99.9,30.24,WNW,285,4.0,6.0,-999,-99.99,,,-99.99,,2013-04-03 11:12:00,
2013-04-03 07:23:00,-999.0,-99.9,30.24,WNW,289,3.0,5.0,-999,-99.99,,,-99.99,,2013-04-03 11:23:00,
2013-04-03 07:33:00,38.0,-99.9,30.25,WNW,298,4.0,6.0,-999,-99.99,,,-99.99,,2013-04-03 11:33:00,
2013-04-03 07:43:00,38.0,-99.9,30.25,NNW,328,3.0,6.0,-999,-99.99,,,-99.99,,2013-04-03 11:43:00,
2013-04-03 07:53:00,38.0,-99.9,30.25,North,-999,-999.0,-999.0,-999,-99.99,,,-99.99,,2013-04-03 11:53:00,
2013-04-03 08:02:00,39.0,-99.9,30.25,NW,323,4.0,5.0,-999,-99.99,,,-99.99,,2013-04-03 12:02:00,
2013-04-03 08:13:00,-999.0,-99.9,30.25,NW,321,5.0,7.0,-999,-99.99,,,-99.99,,2013-04-03 12:13:00,
2013-04-03 08:23:00,40.0,-99.9,30.25,North,-999,-999.0,-999.0,-999,-99.99,,,-99.99,,2013-04-03 12:23:00,
2013-04-03 08:33:00,40.0,-99.9,30.26,NW,304,6.0,7.0,-999,-99.99,,,-99.99,,2013-04-03 12:33:00,
2013-04-03 08:42:00,-999.0,-99.9,30.26,WNW,300,6.0,9.0,-999,-99.99,,,-99.99,,2013-04-03 12:42:00,
2013-04-03 08:53:00,41.0,-99.9,30.25,North,-999,-999.0,-999.0,-999,-99.99,,,-99.99,,2013-04-03 12:53:00,
2013-04-03 09:03:00,42.0,-99.9,30.25,West,267,5.0,9.0,-999,-99.99,,,-99.99,,2013-04-03 13:03:00,
2013-04-03 09:13:00,42.0,-99.9,30.25,WNW,303,7.0,11.0,-999,-99.99,,,-99.99,,2013-04-03 13:13:00,
2013-04-03 09:22:00,-999.0,-99.9,30.25,WNW,287,9.0,13.0,-999,-99.99,,,-99.99,,2013-04-03 13:22:00,
2013-04-03 09:32:00,43.0,-99.9,30.25,NW,304,12.0,15.0,-999,-99.99,,,-99.99,,2013-04-03 13:32:00,
2013-04-03 09:42:00,43.0,-99.9,30.26,North,-999,-999.0,-999.0,-999,-99.99,,,-99.99,,2013-04-03 13:42:00,
2013-04-03 09:52:00,-999.0,-99.9,30.26,NW,304,11.0,15.0,-999,-99.99,,,-99.99,,2013-04-03 13:52:00,
2013-04-03 10:03:00,43.0,-99.9,30.27,NW,314,16.0,20.0,-999,-99.99,,,-99.99,,2013-04-03 14:03:00,
2013-04-03 10:13:00,-999.0,-99.9,30.27,WNW,300,12.0,17.0,-999,-99.99,,,-99.99,,2013-04-03 14:13:00,
2013-04-03 10:22:00,-999.0,-99.9,30.26,NW,317,13.0,18.0,-999,-99.99,,,-99.99,,2013-04-03 14:22:00,
2013-04-03 10:32:00,43.0,-99.9,30.27,WNW,291,14.0,20.0,-999,-99.99,,,-99.99,,2013-04-03 14:32:00,
2013-04-03 10:43:00,-999.0,-99.9,30.26,West,277,9.0,17.0,-999,-99.99,,,-99.99,,2013-04-03 14:43:00,
2013-04-03 10:52:00,44.0,-99.9,30.26,North,-999,-999.0,-999.0,-999,-99.99,,,-99.99,,2013-04-03 14:52:00,
2013-04-03 11:03:00,44.0,-99.9,30.27,WNW,298,17.0,22.0,-999,-99.99,,,-99.99,,2013-04-03 15:03:00,
2013-04-03 11:13:00,-999.0,-99.9,30.27,NW,310,16.0,21.0,-999,-99.99,,,-99.99,,2013-04-03 15:13:00,
2013-04-03 11:24:00,44.0,-99.9,30.27,North,-999,-999.0,-999.0,-999,-99.99,,,-99.99,,2013-04-03 15:24:00,
2013-04-03 11:33:00,44.0,-99.9,30.27,NW,306,11.0,20.0,-999,-99.99,,,-99.99,,2013-04-03 15:33:00,
2013-04-03 11:43:00,44.0,-99.9,30.27,West,274,7.0,15.0,-999,-99.99,,,-99.99,,2013-04-03 15:43:00,
2013-04-03 11:54:00,44.0,-99.9,30.27,North,-999,-999.0,-999.0,-999,-99.99,,,-99.99,,2013-04-03 15:54:00,
2013-04-03 12:04:00,45.0,-99.9,30.27,WNW,299,13.0,17.0,-999,-99.99,,,-99.99,,2013-04-03 16:04:00,
2013-04-03 12:13:00,44.0,-99.9,30.26,WNW,291,15.0,20.0,-999,-99.99,,,-99.99,,2013-04-03 16:13:00,
2013-04-03 12:25:00,44.0,-99.9,30.26,North,-999,-999.0,-999.0,-999,-99.99,,,-99.99,,2013-04-03 16:25:00,
2013-04-03 12:33:00,45.0,-99.9,30.26,WNW,298,17.0,21.0,-999,-99.99,,,-99.99,,2013-04-03 16:33:00,
2013-04-03 12:44:00,-999.0,-99.9,30.26,NW,326,15.0,22.0,-999,-99.99,,,-99.99,,2013-04-03 16:44:00,
2013-04-03 12:53:00,-999.0,-99.9,30.25,NW,323,15.0,20.0,-999,-99.99,,,-99.99,,2013-04-03 16:53:00,
2013-04-03 13:03:00,45.0,-99.9,30.25,NW,312,13.0,23.0,-999,-99.99,,,-99.99,,2013-04-03 17:03:00,
2013-04-03 13:14:00,46.0,-99.9,30.24,WNW,303,11.0,17.0,-999,-99.99,,,-99.99,,2013-04-03 17:14:00,
2013-04-03 13:23:00,47.0,-99.9,30.24,North,-999,-999.0,-999.0,-999,-99.99,,,-99.99,,2013-04-03 17:23:00,
2013-04-03 13:35:00,47.0,-99.9,30.23,NW,313,12.0,20.0,-999,-99.99,,,-99.99,,2013-04-03 17:35:00,
2013-04-03 13:47:00,-999.0,-99.9,30.23,NW,318,15.0,26.0,-999,-99.99,,,-99.99,,2013-04-03 17:47:00,
2013-04-03 13:54:00,-999.0,-99.9,30.23,NNW,327,14.0,20.0,-999,-99.99,,,-99.99,,2013-04-03 17:54:00,
2013-04-03 14:03:00,47.0,-99.9,30.22,NW,304,17.0,24.0,-999,-99.99,,,-99.99,,2013-04-03 18:03:00,
2013-04-03 14:13:00,47.0,-99.9,30.22,North,-999,-999.0,-999.0,-999,-99.99,,,-99.99,,2013-04-03 18:13:00,
2013-04-03 14:23:00,47.0,-99.9,30.21,North,-999,-999.0,-999.0,-999,-99.99,,,-99.99,,2013-04-03 18:23:00,
2013-04-03 14:35:00,47.0,-99.9,30.22,NW,321,18.0,25.0,-999,-99.99,,,-99.99,,2013-04-03 18:35:00,
2013-04-03 14:43:00,48.0,-99.9,30.21,NNW,328,16.0,22.0,-999,-99.99,,,-99.99,,2013-04-03 18:43:00,
2013-04-03 14:52:00,48.0,-99.9,30.21,North,-999,-999.0,-999.0,-999,-99.99,,,-99.99,,2013-04-03 18:52:00,
2013-04-03 15:04:00,48.0,-99.9,30.20,WNW,292,17.0,21.0,-999,-99.99,,,-99.99,,2013-04-03 19:04:00,
2013-04-03 15:13:00,49.0,-99.9,30.20,North,-999,-999.0,-999.0,-999,-99.99,,,-99.99,,2013-04-03 19:13:00,
2013-04-03 15:22:00,-999.0,-99.9,30.20,WNW,301,15.0,23.0,-999,-99.99,,,-99.99,,2013-04-03 19:22:00,
2013-04-03 15:33:00,49.0,-99.9,30.20,WNW,298,15.0,21.0,-999,-99.99,,,-99.99,,2013-04-03 19:33:00,
2013-04-03 15:42:00,-999.0,-99.9,30.20,NW,308,12.0,20.0,-999,-99.99,,,-99.99,,2013-04-03 19:42:00,
2013-04-03 15:52:00,49.0,-99.9,30.20,North,-999,-999.0,-999.0,-999,-99.99,,,-99.99,,2013-04-03 19:52:00,
2013-04-03 16:03:00,49.0,-99.9,30.20,NW,315,13.0,17.0,-999,-99.99,,,-99.99,,2013-04-03 20:03:00,
2013-04-03 16:13:00,50.0,-99.9,30.20,NW,316,17.0,21.0,-999,-99.99,,,-99.99,,2013-04-03 20:13:00,
2013-04-03 16:23:00,-999.0,-99.9,30.20,NNW,331,14.0,22.0,-999,-99.99,,,-99.99,,2013-04-03 20:23:00,
2013-04-03 16:33:00,49.0,-99.9,30.20,NW,311,16.0,23.0,-999,-99.99,,,-99.99,,2013-04-03 20:33:00,
2013-04-03 16:42:00,50.0,-99.9,30.20,North,-999,-999.0,-999.0,-999,-99.99,,,-99.99,,2013-04-03 20:42:00,
2013-04-03 16:54:00,-999.0,-99.9,30.20,NNW,335,18.0,28.0,-999,-99.99,,,-99.99,,2013-04-03 20:54:00,
2013-04-03 17:03:00,50.0,-99.9,30.21,NW,310,14.0,28.0,-999,-99.99,,,-99.99,,2013-04-03 21:03:00,
2013-04-03 17:12:00,51.0,-99.9,30.22,NNW,335,17.0,27.0,-999,-99.99,,,-99.99,,2013-04-03 21:12:00,
2013-04-03 17:22:00,51.0,-99.9,30.22,North,-999,-999.0,-999.0,-999,-99.99,,,-99.99,,2013-04-03 21:22:00,
2013-04-03 17:33:00,50.0,-99.9,30.22,NNW,327,19.0,27.0,-999,-99.99,,,-99.99,,2013-04-03 21:33:00,
2013-04-03 17:42:00,50.0,-99.9,30.23,NW,314,15.0,28.0,-999,-99.99,,,-99.99,,2013-04-03 21:42:00,
2013-04-03 17:52:00,-999.0,-99.9,30.24,NNW,342,14.0,24.0,-999,-99.99,,,-99.99,,2013-04-03 21:52:00,
2013-04-03 18:02:00,51.0,-99.9,30.24,North,1,15.0,21.0,-999,-99.99,,,-99.99,,2013-04-03 22:02:00,
2013-04-03 18:13:00,50.0,-99.9,30.25,North,-999,-999.0,-999.0,-999,-99.99,,,-99.99,,2013-04-03 22:13:00,
2013-04-03 18:22:00,-999.0,-99.9,30.26,North,352,17.0,29.0,-999,-99.99,,,-99.99,,2013-04-03 22:22:00,
2013-04-03 18:33:00,49.0,-99.9,30.27,NNW,343,13.0,23.0,-999,-99.99,,,-99.99,,2013-04-03 22:33:00,
2013-04-03 18:42:00,49.0,-99.9,30.27,North,-999,-999.0,-999.0,-999,-99.99,,,-99.99,,2013-04-03 22:42:00,
2013-04-03 18:53:00,49.0,-99.9,30.27,North,-999,-999.0,-999.0,-999,-99.99,,,-99.99,,2013-04-03 22:53:00,
2013-04-03 19:02:00,49.0,-99.9,30.28,NNW,345,13.0,23.0,-999,-99.99,,,-99.99,,2013-04-03 23:02:00,
2013-04-03 19:12:00,48.0,-99.9,30.29,North,349,15.0,23.0,-999,-99.99,,,-99.99,,2013-04-03 23:12:00,
2013-04-03 19:22:00,-999.0,-99.9,30.29,NNW,332,17.0,27.0,-999,-99.99,,,-99.99,,2013-04-03 23:22:00,
2013-04-03 19:33:00,48.0,-99.9,30.29,North,355,8.0,24.0,-999,-99.99,,,-99.99,,2013-04-03 23:33:00,
2013-04-03 19:43:00,-999.0,-99.9,30.30,NNW,346,14.0,22.0,-999,-99.99,,,-99.99,,2013-04-03 23:43:00,
2013-04-03 19:55:00,-999.0,-99.9,30.30,North,351,11.0,21.0,-999,-99.99,,,-99.99,,2013-04-03 23:55:00,
2013-04-03 20:03:00,47.0,-99.9,30.30,NNW,344,13.0,20.0,-999,-99.99,,,-99.99,,2013-04-04 00:03:00,
2013-04-03 20:12:00,-999.0,-99.9,30.31,North,354,16.0,23.0,-999,-99.99,,,-99.99,,2013-04-04 00:12:00,
2013-04-03 20:22:00,-999.0,-99.9,30.31,NNW,347,14.0,20.0,-999,-99.99,,,-99.99,,2013-04-04 00:22:00,
2013-04-03 20:33:00,46.0,-99.9,30.32,North,351,13.0,21.0,-999,-99.99,,,-99.99,,2013-04-04 00:33:00,
2013-04-03 20:43:00,45.0,-99.9,30.32,North,358,11.0,14.0,-999,-99.99,,,-99.99,,2013-04-04 00:43:00,
2013-04-03 20:53:00,45.0,-99.9,30.33,North,-999,-999.0,-999.0,-999,-99.99,,,-99.99,,2013-04-04 00:53:00,
2013-04-03 21:02:00,44.0,-99.9,30.33,North,5,11.0,19.0,-999,-99.99,,,-99.99,,2013-04-04 01:02:00,
2013-04-03 21:12:00,-999.0,-99.9,30.33,North,359,14.0,21.0,-999,-99.99,,,-99.99,,2013-04-04 01:12:00,
2013-04-03 21:22:00,-999.0,-99.9,30.35,North,349,12.0,16.0,-999,-99.99,,,-99.99,,2013-04-04 01:22:00,
2013-04-03 21:32:00,43.0,-99.9,30.35,North,349,11.0,15.0,-999,-99.99,,,-99.99,,2013-04-04 01:32:00,
2013-04-03 21:43:00,43.0,-99.9,30.37,NNW,331,15.0,21.0,-999,-99.99,,,-99.99,,2013-04-04 01:43:00,
2013-04-03 21:53:00,-999.0,-99.9,30.37,North,358,13.0,20.0,-999,-99.99,,,-99.99,,2013-04-04 01:53:00,
2013-04-03 22:02:00,42.0,-99.9,30.37,NNW,348,10.0,18.0,-999,-99.99,,,-99.99,,2013-04-04 02:02:00,
2013-04-03 22:12:00,42.0,-99.9,30.37,North,1,10.0,17.0,-999,-99.99,,,-99.99,,2013-04-04 02:12:00,
2013-04-03 22:22:00,-999.0,-99.9,30.37,North,354,11.0,16.0,-999,-99.99,,,-99.99,,2013-04-04 02:22:00,
2013-04-03 22:32:00,41.0,-99.9,30.38,NNW,342,12.0,17.0,-999,-99.99,,,-99.99,,2013-04-04 02:32:00,
2013-04-03 22:42:00,41.0,-99.9,30.38,NNW,342,12.0,17.0,-999,-99.99,,,-99.99,,2013-04-04 02:42:00,
2013-04-03 22:53:00,41.0,-99.9,30.38,NNW,342,12.0,17.0,-999,-99.99,,,-99.99,,2013-04-04 02:53:00,
2013-04-03 23:02:00,40.0,-99.9,30.38,North,350,11.0,15.0,-999,-99.99,,,-99.99,,2013-04-04 03:02:00,
2013-04-03 23:12:00,40.0,-99.9,30.38,North,10,6.0,13.0,-999,-99.99,,,-99.99,,2013-04-04 03:12:00,
2013-04-03 23:23:00,-999.0,-99.9,30.38,North,2,6.0,12.0,-999,-99.99,,,-99.99,,2013-04-04 03:23:00,
2013-04-03 23:34:00,40.0,-99.9,30.39,North,351,6.0,11.0,-999,-99.99,,,-99.99,,2013-04-04 03:34:00,
2013-04-03 23:45:00,39.0,-99.9,30.39,North,-999,-999.0,-999.0,-999,-99.99,,,-99.99,,2013-04-04 03:45:00,
2013-04-03 23:53:00,39.0,-99.9,30.39,North,-999,-999.0,-999.0,-999,-99.99,,,-99.99,,2013-04-04 03:53:00,